Time;durP1;ratioP1;P1;durP2;ratioP2;P2;SDS_P1;SDS_P2;PMS_P1;PMS_P2;Temp;Humidity;BMP_temperature;BMP_pressure;BME280_temperature;BME280_humidity;BME280_pressure;Samples;Min_cycle;Max_cycle;Signal;HPM_P1;HPM_P2
2022/02/10 00:05:50;;;;;;;5.67;3.40;;;8.40;99.90;;;;;;5021813;28;20859;-52
2022/02/10 00:13:24;;;;;;;4.83;3.67;;;8.40;99.90;;;;;;5022449;28;20564;-52
2022/02/10 00:14:36;;;;;;;4.10;3.30;;;8.40;99.90;;;;;;5007846;28;20511;-51
2022/02/10 00:17:28;;;;;;;3.93;3.27;;;8.40;99.90;;;;;;5003068;28;20560;-52
2022/02/10 00:20:20;;;;;;;4.53;3.67;;;8.40;99.90;;;;;;5008761;28;20476;-52
2022/02/10 00:23:13;;;;;;;5.00;3.63;;;8.40;99.90;;;;;;5009371;28;20483;-52
2022/02/10 00:34:18;;;;;;;3.40;3.10;;;8.40;99.90;;;;;;5030261;28;20455;-50
2022/02/10 00:36:57;;;;;;;5.20;4.10;;;8.40;99.90;;;;;;5026044;28;21224;-50
2022/02/10 00:39:38;;;;;;;4.63;3.00;;;8.40;99.90;;;;;;5026704;28;20502;-51
2022/02/10 00:42:06;;;;;;;4.20;3.80;;;8.40;99.90;;;;;;5025267;28;21091;-49
2022/02/10 00:44:37;;;;;;;5.37;3.50;;;8.40;99.90;;;;;;5043966;28;20432;-51
2022/02/10 00:47:05;;;;;;;3.83;3.10;;;8.40;99.90;;;;;;5045667;28;20478;-50
2022/02/10 00:49:34;;;;;;;3.57;3.27;;;8.40;99.90;;;;;;5027071;28;20969;-53
2022/02/10 00:52:04;;;;;;;4.57;3.00;;;8.40;99.90;;;;;;5033339;28;20479;-49
2022/02/10 00:54:36;;;;;;;3.20;2.90;;;8.40;99.90;;;;;;5034432;28;20489;-51
2022/02/10 00:57:07;;;;;;;4.20;3.10;;;8.40;99.90;;;;;;5042958;28;20471;-51
2022/02/10 00:59:49;;;;;;;4.67;3.23;;;8.40;99.90;;;;;;5026054;28;21048;-50
2022/02/10 01:06:57;;;;;;;3.63;3.20;;;8.40;99.90;;;;;;5025919;28;20518;-51
2022/02/10 01:11:12;;;;;;;3.40;3.10;;;8.40;99.90;;;;;;5034843;28;20538;-50
2022/02/10 01:13:54;;;;;;;3.30;3.00;;;8.30;99.90;;;;;;5024462;28;20437;-51
2022/02/10 01:30:08;;;;;;;4.00;3.40;;;8.30;99.90;;;;;;5020064;28;20539;-50
2022/02/10 01:32:38;;;;;;;2.83;2.63;;;8.30;99.90;;;;;;5024933;28;20512;-51
2022/02/10 01:35:08;;;;;;;3.33;3.07;;;8.30;99.90;;;;;;5019096;28;20443;-50
2022/02/10 01:37:36;;;;;;;3.77;3.47;;;8.30;99.90;;;;;;5035013;28;21062;-51
2022/02/10 01:40:10;;;;;;;4.07;3.00;;;8.30;99.90;;;;;;5012036;28;20448;-51
2022/02/10 02:04:47;;;;;;;3.83;3.10;;;8.30;99.90;;;;;;5004990;28;20885;-52
2022/02/10 02:07:15;;;;;;;3.90;3.50;;;8.30;99.90;;;;;;5010904;28;20531;-53
2022/02/10 02:09:43;;;;;;;3.33;2.90;;;8.20;99.90;;;;;;5013937;28;20488;-53
2022/02/10 02:12:11;;;;;;;2.93;2.73;;;8.30;99.90;;;;;;5031377;28;20496;-52
2022/02/10 02:14:39;;;;;;;4.03;3.00;;;8.30;99.90;;;;;;5017813;28;20442;-53
2022/02/10 02:17:08;;;;;;;3.17;2.73;;;8.30;99.90;;;;;;5031171;28;20471;-52
2022/02/10 02:19:36;;;;;;;3.83;2.80;;;8.30;99.90;;;;;;5015617;28;20480;-52
2022/02/10 02:22:07;;;;;;;4.40;3.13;;;8.20;99.90;;;;;;5016112;28;20503;-52
2022/02/10 02:24:36;;;;;;;3.30;2.80;;;8.20;99.90;;;;;;5021693;28;20498;-53
2022/02/10 02:27:07;;;;;;;4.10;2.47;;;8.20;99.90;;;;;;5010683;28;20835;-52
2022/02/10 02:29:40;;;;;;;2.70;2.50;;;8.20;99.90;;;;;;5011445;28;20469;-53
2022/02/10 02:32:13;;;;;;;3.20;2.63;;;8.20;99.90;;;;;;5030905;28;20598;-52
2022/02/10 02:35:09;;;;;;;3.33;3.03;;;8.20;99.90;;;;;;5015257;28;20530;-52
2022/02/10 02:38:07;;;;;;;2.93;2.70;;;8.20;99.90;;;;;;5010889;28;20456;-53
2022/02/10 03:04:53;;;;;;;2.83;2.63;;;8.20;99.90;;;;;;5014948;28;20480;-51
2022/02/10 03:07:34;;;;;;;2.20;2.00;;;8.20;99.90;;;;;;5015747;28;20480;-51
2022/02/10 03:10:23;;;;;;;3.08;2.50;;;8.20;99.90;;;;;;5010974;28;20457;-53
2022/02/10 03:12:51;;;;;;;3.80;2.80;;;8.10;99.90;;;;;;5009268;28;20218;-53
2022/02/10 03:15:26;;;;;;;3.10;2.53;;;8.10;99.90;;;;;;5010502;28;20533;-52
2022/02/10 03:18:11;;;;;;;2.97;2.70;;;8.10;99.90;;;;;;5013323;28;20467;-53
2022/02/10 03:20:52;;;;;;;3.80;3.10;;;8.10;99.90;;;;;;5000470;28;20484;-53
2022/02/10 04:03:04;;;;;;;4.45;2.70;;;8.00;99.90;;;;;;5014561;28;20492;-52
2022/02/10 04:06:03;;;;;;;3.13;2.57;;;8.00;99.90;;;;;;5007964;28;20661;-52
2022/02/10 04:08:52;;;;;;;2.97;2.77;;;8.00;99.90;;;;;;5009282;28;20472;-53
2022/02/10 04:11:37;;;;;;;3.47;3.17;;;8.00;99.90;;;;;;5015477;28;20479;-52
2022/02/10 04:14:14;;;;;;;3.50;2.60;;;8.00;99.90;;;;;;5010528;28;20987;-52
2022/02/10 04:16:51;;;;;;;3.57;3.03;;;8.00;99.90;;;;;;5008722;28;20551;-52
2022/02/10 04:22:14;;;;;;;4.60;3.30;;;8.00;99.90;;;;;;5022078;28;20975;-52
2022/02/10 04:25:04;;;;;;;2.47;2.20;;;8.00;99.90;;;;;;5011373;28;20494;-52
2022/02/10 04:27:56;;;;;;;2.77;2.50;;;8.00;99.90;;;;;;5008233;28;20482;-52
2022/02/10 04:30:46;;;;;;;4.47;3.83;;;8.00;99.90;;;;;;5005698;28;20969;-52
2022/02/10 04:39:39;;;;;;;3.20;2.80;;;8.00;99.90;;;;;;5011880;28;20195;-52
2022/02/10 04:56:01;;;;;;;3.13;2.65;;;7.90;99.90;;;;;;5024912;28;20436;-52
2022/02/10 04:58:50;;;;;;;3.00;2.70;;;7.90;99.90;;;;;;5013108;28;20226;-52
2022/02/10 05:01:35;;;;;;;3.70;2.50;;;7.90;99.90;;;;;;5000481;28;20499;-52
2022/02/10 05:04:40;;;;;;;3.05;2.85;;;7.90;99.90;;;;;;5004740;28;20496;-52
2022/02/10 05:21:30;;;;;;;3.30;3.00;;;7.90;99.90;;;;;;5012275;28;20563;-52
2022/02/10 05:24:38;;;;;;;3.10;2.75;;;7.90;99.90;;;;;;5012526;28;20468;-51
2022/02/10 05:33:02;;;;;;;2.70;2.50;;;7.90;99.90;;;;;;5021703;28;21132;-51
2022/02/10 05:35:34;;;;;;;3.33;2.63;;;7.90;99.90;;;;;;5009298;28;20518;-52
2022/02/10 05:38:07;;;;;;;2.22;2.03;;;7.90;99.90;;;;;;5012400;28;20491;-53
2022/02/10 05:43:41;;;;;;;3.20;2.90;;;7.90;99.90;;;;;;5027555;28;20233;-50
2022/02/10 05:46:19;;;;;;;2.65;2.45;;;7.90;99.90;;;;;;5032105;28;20478;-52
2022/02/10 05:49:08;;;;;;;3.30;2.53;;;7.90;99.90;;;;;;5023148;28;20306;-51
2022/02/10 05:54:38;;;;;;;3.30;2.80;;;7.80;99.90;;;;;;5001139;28;20538;-52
2022/02/10 06:00:30;;;;;;;3.77;2.30;;;7.80;99.90;;;;;;5012057;28;20264;-51
2022/02/10 06:38:08;;;;;;;2.40;2.20;;;7.80;99.90;;;;;;5014661;28;20499;-52
2022/02/10 06:53:00;;;;;;;2.92;2.67;;;7.70;99.90;;;;;;5010283;28;20316;-52
2022/02/10 06:56:02;;;;;;;4.83;2.90;;;7.70;99.90;;;;;;5026161;28;20658;-52
2022/02/10 07:02:36;;;;;;;2.67;2.30;;;7.70;99.90;;;;;;5003858;28;20502;-52
2022/02/10 07:04:33;;;;;;;3.65;3.00;;;7.70;99.90;;;;;;5006636;28;20224;-52
2022/02/10 07:07:36;;;;;;;3.15;2.88;;;7.70;99.90;;;;;;5002197;28;20254;-52
2022/02/10 07:10:26;;;;;;;4.27;3.23;;;7.70;99.90;;;;;;5010211;28;20245;-52
2022/02/10 07:49:28;;;;;;;3.75;3.45;;;7.60;99.90;;;;;;4998027;28;20586;-52
2022/02/10 07:54:58;;;;;;;5.07;3.25;;;7.60;99.90;;;;;;5000490;28;20197;-50
2022/02/10 07:57:36;;;;;;;4.10;3.40;;;7.60;99.90;;;;;;4999762;28;20315;-52
2022/02/10 08:50:21;;;;;;;6.30;5.00;;;7.60;99.90;;;;;;5014262;28;20708;-50
2022/02/10 08:55:52;;;;;;;3.80;3.40;;;7.60;99.90;;;;;;5013396;28;20201;-50
2022/02/10 08:58:49;;;;;;;3.90;3.50;;;7.60;99.90;;;;;;5006635;28;20634;-52
2022/02/10 09:04:03;;;;;;;6.38;3.88;;;7.60;99.90;;;;;;4993577;28;20308;-51
2022/02/10 09:15:54;;;;;;;5.40;3.97;;;7.60;99.90;;;;;;4951208;29;20204;-52
2022/02/10 09:18:51;;;;;;;4.10;3.70;;;7.60;99.90;;;;;;4993084;28;20678;-52
2022/02/10 09:57:54;;;;;;;5.60;3.72;;;7.60;99.90;;;;;;5024520;28;20225;-50
2022/02/10 10:00:38;;;;;;;4.95;3.88;;;7.60;99.90;;;;;;5022846;28;20210;-51
2022/02/10 10:03:13;;;;;;;7.30;4.05;;;7.60;99.90;;;;;;5026920;28;20233;-52
2022/02/10 10:05:55;;;;;;;5.18;3.80;;;7.60;99.90;;;;;;5027603;28;20196;-52
2022/02/10 10:08:39;;;;;;;4.25;3.67;;;7.60;99.90;;;;;;5031707;28;20491;-52
2022/02/10 10:14:10;;;;;;;5.25;4.75;;;7.50;99.90;;;;;;5001857;28;20203;-51
2022/02/10 10:16:53;;;;;;;5.72;3.85;;;7.60;99.90;;;;;;5011329;28;20378;-51
2022/02/10 10:19:53;;;;;;;4.40;4.00;;;7.50;99.90;;;;;;5013782;28;20696;-51
2022/02/10 10:22:44;;;;;;;6.03;3.30;;;7.50;99.90;;;;;;5026278;28;20227;-52
2022/02/10 10:25:49;;;;;;;4.07;3.67;;;7.50;99.90;;;;;;5012380;28;20186;-52
2022/02/10 10:51:06;;;;;;;4.68;4.25;;;7.60;99.90;;;;;;5021505;28;20243;-51
2022/02/10 10:53:45;;;;;;;4.05;3.28;;;7.60;99.90;;;;;;5030614;28;20233;-52
2022/02/10 10:56:19;;;;;;;4.05;3.40;;;7.60;99.90;;;;;;5010128;28;20227;-52
2022/02/10 11:06:06;;;;;;;5.00;4.07;;;7.60;99.90;;;;;;5010781;28;20208;-52
2022/02/10 11:37:09;;;;;;;3.38;3.08;;;7.50;99.90;;;;;;5018224;28;20229;-51
2022/02/10 11:39:54;;;;;;;3.60;3.30;;;7.50;99.90;;;;;;5015583;28;20217;-51
2022/02/10 11:42:36;;;;;;;4.20;3.80;;;7.50;99.90;;;;;;5012088;28;20225;-51
2022/02/10 12:01:29;;;;;;;4.55;3.38;;;7.50;99.90;;;;;;4991094;28;20221;-51
2022/02/10 13:24:24;;;;;;;3.42;3.13;;;7.50;99.90;;;;;;4990181;28;20199;-52
2022/02/10 13:50:00;;;;;;;4.45;4.05;;;7.50;99.90;;;;;;4951827;28;20609;-51
2022/02/10 14:09:12;;;;;;;4.57;3.38;;;7.50;99.90;;;;;;4992445;28;20244;-51
2022/02/10 14:12:30;;;;;;;4.70;4.03;;;7.50;99.90;;;;;;4992369;28;20270;-51
2022/02/10 14:14:43;;;;;;;3.88;3.25;;;7.50;99.90;;;;;;4993039;28;20476;-51
2022/02/10 14:17:16;;;;;;;2.72;2.53;;;7.50;99.90;;;;;;4992298;28;20247;-52
2022/02/10 14:19:58;;;;;;;3.42;3.13;;;7.50;99.90;;;;;;4992790;28;20703;-52
2022/02/10 14:22:38;;;;;;;4.20;3.70;;;7.50;99.90;;;;;;5002701;28;20210;-51
2022/02/10 14:28:14;;;;;;;4.10;3.50;;;7.60;99.90;;;;;;5000946;28;20222;-51
2022/02/10 14:30:43;;;;;;;5.05;4.32;;;7.60;99.90;;;;;;4972327;28;20443;-51
2022/02/10 14:33:12;;;;;;;4.22;3.83;;;7.60;99.90;;;;;;4972187;28;20703;-52
2022/02/10 14:35:52;;;;;;;4.18;3.67;;;7.70;99.90;;;;;;4993728;28;20200;-52
2022/02/10 14:38:42;;;;;;;6.25;4.15;;;7.70;99.90;;;;;;4992867;28;20298;-51
2022/02/10 14:41:48;;;;;;;4.00;3.60;;;7.70;99.90;;;;;;5011845;28;20231;-52
2022/02/10 15:49:11;;;;;;;3.40;3.10;;;7.90;99.90;;;;;;4975840;28;20489;-51
2022/02/10 16:11:33;;;;;;;2.97;2.77;;;7.90;99.90;;;;;;5023880;28;20642;-50
2022/02/10 16:16:54;;;;;;;4.00;3.70;;;7.90;99.90;;;;;;4988735;28;20471;-51
2022/02/10 16:19:25;;;;;;;3.67;2.70;;;7.90;99.90;;;;;;4989174;28;20474;-51
2022/02/10 16:22:05;;;;;;;2.87;2.50;;;7.90;99.90;;;;;;4989152;28;20472;-52
2022/02/10 16:24:36;;;;;;;3.13;2.83;;;7.90;99.90;;;;;;4994606;28;20529;-51
2022/02/10 16:29:52;;;;;;;3.40;3.00;;;7.90;99.90;;;;;;4989982;28;20535;-52
2022/02/10 16:32:28;;;;;;;3.30;2.50;;;7.90;99.90;;;;;;4994930;28;20472;-51
2022/02/10 16:35:01;;;;;;;2.77;2.47;;;7.90;99.90;;;;;;5000659;28;20440;-51
2022/02/10 16:37:36;;;;;;;2.40;2.20;;;7.90;99.90;;;;;;5002098;28;20479;-52
2022/02/10 16:40:10;;;;;;;2.17;1.97;;;7.90;99.90;;;;;;4988929;28;20500;-52
2022/02/10 16:42:47;;;;;;;3.13;2.60;;;7.90;99.90;;;;;;4987882;28;20864;-51
2022/02/10 16:45:21;;;;;;;3.90;2.93;;;7.90;99.90;;;;;;4989352;28;20439;-52
2022/02/10 16:47:56;;;;;;;2.60;2.40;;;7.90;99.90;;;;;;4989067;28;20512;-51
2022/02/10 16:50:29;;;;;;;2.53;2.33;;;7.90;99.90;;;;;;5002478;28;20624;-52
2022/02/10 16:53:07;;;;;;;2.80;2.35;;;7.90;99.90;;;;;;4969948;28;20488;-51
2022/02/10 16:55:45;;;;;;;2.70;2.50;;;7.90;99.90;;;;;;4986644;28;20280;-50
2022/02/10 16:58:27;;;;;;;2.80;2.55;;;7.90;99.90;;;;;;5003476;28;20593;-51
2022/02/10 17:01:38;;;;;;;2.43;2.10;;;7.90;99.90;;;;;;5003347;28;20608;-52
2022/02/10 17:16:34;;;;;;;2.70;2.07;;;7.90;99.90;;;;;;4992673;28;20421;-52
2022/02/10 17:27:19;;;;;;;2.70;2.50;;;7.90;99.90;;;;;;4985035;28;20893;-52
2022/02/10 17:33:04;;;;;;;2.63;2.43;;;7.90;99.90;;;;;;4979817;28;20217;-52
2022/02/10 17:35:49;;;;;;;2.72;2.50;;;7.90;99.90;;;;;;4973653;28;20441;-52
2022/02/10 17:44:16;;;;;;;2.43;2.23;;;7.90;99.90;;;;;;4929606;29;20447;-52
2022/02/10 17:46:57;;;;;;;3.65;2.20;;;7.90;99.90;;;;;;4967316;28;20519;-52
2022/02/10 17:52:15;;;;;;;2.40;2.20;;;7.90;99.90;;;;;;4991972;28;20469;-52
2022/02/10 17:54:45;;;;;;;2.40;2.15;;;7.90;99.90;;;;;;5011371;28;20972;-52
2022/02/10 17:57:16;;;;;;;2.60;2.40;;;7.90;99.90;;;;;;5023824;28;20304;-52
2022/02/10 17:59:44;;;;;;;2.83;2.63;;;7.90;99.90;;;;;;4992989;28;20477;-52
2022/02/10 18:02:14;;;;;;;3.03;2.47;;;7.90;99.90;;;;;;4992617;28;20473;-52
2022/02/10 18:04:42;;;;;;;2.58;2.38;;;7.90;99.90;;;;;;4978373;28;20512;-51
2022/02/10 18:07:11;;;;;;;3.42;3.13;;;7.90;99.90;;;;;;5009214;28;20633;-51
2022/02/10 18:15:40;;;;;;;2.63;2.42;;;7.90;99.90;;;;;;4950664;28;20204;-51
2022/02/10 18:18:17;;;;;;;2.93;2.43;;;7.90;99.90;;;;;;4982971;28;20317;-51
2022/02/10 18:20:52;;;;;;;2.73;2.53;;;7.90;99.90;;;;;;4980956;28;20555;-50
2022/02/10 18:23:25;;;;;;;3.37;2.60;;;7.90;99.90;;;;;;5000472;28;20440;-52
2022/02/10 18:26:02;;;;;;;5.47;4.67;;;7.90;99.90;;;;;;4991372;28;20488;-50
2022/02/10 18:28:55;;;;;;;3.58;3.20;;;7.90;99.90;;;;;;4973985;28;20468;-52
2022/02/10 19:02:10;;;;;;;2.70;2.50;;;7.80;99.90;;;;;;5015465;28;20205;-52
2022/02/10 19:07:37;;;;;;;4.27;2.80;;;7.80;99.90;;;;;;5016200;28;20815;-51
2022/02/10 19:10:07;;;;;;;2.70;2.45;;;7.90;99.90;;;;;;5030461;28;21004;-51
2022/02/10 19:12:44;;;;;;;2.45;2.25;;;7.90;99.90;;;;;;5007315;28;20275;-52
2022/02/10 19:15:18;;;;;;;2.87;2.43;;;7.90;99.90;;;;;;4997037;28;20211;-51
2022/02/10 19:17:54;;;;;;;1.92;1.80;;;7.90;99.90;;;;;;5010958;28;20722;-51
2022/02/10 19:34:31;;;;;;;3.25;2.38;;;7.80;99.90;;;;;;4946880;28;20293;-51
2022/02/10 19:37:15;;;;;;;2.80;2.60;;;7.80;99.90;;;;;;4934304;28;20238;-51
2022/02/10 19:39:45;;;;;;;2.78;2.53;;;7.80;99.90;;;;;;4973566;28;20655;-51
2022/02/10 19:42:13;;;;;;;3.85;3.15;;;7.80;99.90;;;;;;5003316;28;20224;-51
2022/02/10 19:44:41;;;;;;;3.05;2.75;;;7.80;99.90;;;;;;5004253;28;20272;-52
2022/02/10 19:47:09;;;;;;;2.38;2.17;;;7.80;99.90;;;;;;5016891;28;20314;-51
2022/02/10 19:49:41;;;;;;;3.03;2.70;;;7.80;99.90;;;;;;5015326;28;20304;-50
2022/02/10 19:52:11;;;;;;;3.10;2.60;;;7.80;99.90;;;;;;5000748;28;20303;-52
2022/02/10 19:54:46;;;;;;;3.27;2.47;;;7.80;99.90;;;;;;4996437;28;20209;-51
2022/02/10 19:57:14;;;;;;;2.42;2.22;;;7.80;99.90;;;;;;5010929;28;20500;-51
2022/02/10 19:59:42;;;;;;;2.53;2.33;;;7.80;99.90;;;;;;4976677;28;20665;-51
2022/02/10 20:02:10;;;;;;;2.40;2.07;;;7.80;99.90;;;;;;5011324;28;20494;-50
2022/02/10 20:14:13;;;;;;;2.42;2.22;;;7.80;99.90;;;;;;5013983;28;20207;-52
2022/02/10 20:16:41;;;;;;;2.65;2.45;;;7.80;99.90;;;;;;5039665;28;20313;-51
2022/02/10 20:19:09;;;;;;;2.70;1.88;;;7.80;99.90;;;;;;5057420;28;20191;-52
2022/02/10 20:21:37;;;;;;;2.10;2.00;;;7.80;99.90;;;;;;5062974;28;20258;-52
2022/02/10 20:24:06;;;;;;;3.97;2.25;;;7.80;99.90;;;;;;5050135;28;20435;-52
2022/02/10 20:26:35;;;;;;;2.72;2.35;;;7.80;99.90;;;;;;5050330;28;20229;-52
2022/02/10 20:29:03;;;;;;;3.28;2.40;;;7.80;99.90;;;;;;5036588;28;20240;-51
2022/02/10 20:31:36;;;;;;;2.72;2.53;;;7.80;99.90;;;;;;5030635;28;20282;-50
2022/02/10 20:39:20;;;;;;;2.27;2.07;;;7.80;99.90;;;;;;5020526;28;20639;-51
2022/02/10 20:41:51;;;;;;;2.50;2.30;;;7.80;99.90;;;;;;5044583;28;21002;-52
2022/02/10 20:44:21;;;;;;;2.65;2.20;;;7.80;99.90;;;;;;5018931;28;20193;-51
2022/02/10 20:46:52;;;;;;;2.87;1.90;;;7.80;99.90;;;;;;5050739;28;20224;-51
2022/02/10 20:49:22;;;;;;;2.25;1.75;;;7.80;99.90;;;;;;5043263;28;20471;-51
2022/02/10 20:51:50;;;;;;;2.75;2.33;;;7.80;99.90;;;;;;5052479;28;20223;-51
2022/02/10 20:54:18;;;;;;;2.58;2.38;;;7.80;99.90;;;;;;5054276;28;20206;-50
2022/02/10 20:56:47;;;;;;;2.13;1.93;;;7.80;99.90;;;;;;5061532;28;20222;-50
2022/02/10 20:59:22;;;;;;;2.30;2.10;;;7.70;99.90;;;;;;5067092;28;20441;-50
2022/02/10 21:01:58;;;;;;;2.22;2.03;;;7.80;99.90;;;;;;5065004;28;20477;-50
2022/02/10 21:04:31;;;;;;;2.83;2.17;;;7.70;99.90;;;;;;5043219;28;20269;-50
2022/02/10 21:07:05;;;;;;;2.17;1.92;;;7.80;99.90;;;;;;5054250;28;20680;-50
2022/02/10 21:09:38;;;;;;;1.93;1.83;;;7.80;99.90;;;;;;5062615;28;20773;-50
2022/02/10 21:12:10;;;;;;;1.65;1.55;;;7.70;99.90;;;;;;5049671;28;20569;-50
2022/02/10 21:14:39;;;;;;;2.03;1.93;;;7.70;99.90;;;;;;5034312;28;20263;-50
2022/02/10 21:17:10;;;;;;;2.30;2.03;;;7.70;99.90;;;;;;5071027;28;20492;-50
2022/02/10 21:19:41;;;;;;;2.20;2.00;;;7.70;99.90;;;;;;5041429;28;20219;-50
2022/02/10 21:22:11;;;;;;;2.05;1.95;;;7.70;99.90;;;;;;5071905;28;20244;-50
2022/02/10 21:24:45;;;;;;;2.30;2.10;;;7.70;99.90;;;;;;5063020;28;20519;-50
2022/02/10 21:29:59;;;;;;;2.08;1.90;;;7.70;99.90;;;;;;5033026;28;20699;-50
2022/02/10 21:32:31;;;;;;;2.08;1.75;;;7.70;99.90;;;;;;5073694;28;20235;-49
2022/02/10 21:37:50;;;;;;;1.80;1.70;;;7.70;99.90;;;;;;5053388;28;20467;-50
2022/02/10 21:40:40;;;;;;;2.40;1.77;;;7.70;99.90;;;;;;5057873;28;20511;-49
2022/02/10 21:54:55;;;;;;;1.70;1.60;;;7.70;99.90;;;;;;5033478;28;20201;-50
2022/02/10 22:00:43;;;;;;;2.97;1.80;;;7.70;99.90;;;;;;5018233;28;20459;-50
2022/02/10 22:03:32;;;;;;;2.70;2.15;;;7.70;99.90;;;;;;5052191;28;20231;-50
2022/02/10 22:06:19;;;;;;;3.33;1.85;;;7.70;99.90;;;;;;5041233;28;20293;-50
2022/02/10 22:09:10;;;;;;;1.60;1.50;;;7.70;99.90;;;;;;5053648;28;20319;-50
2022/02/10 22:11:59;;;;;;;1.85;1.75;;;7.70;99.90;;;;;;5031621;28;20317;-50
2022/02/10 22:17:35;;;;;;;2.38;2.03;;;7.70;99.90;;;;;;5062950;28;20248;-50
2022/02/10 22:20:09;;;;;;;1.80;1.70;;;7.70;99.90;;;;;;5041147;28;20295;-49
2022/02/10 22:22:50;;;;;;;2.00;1.60;;;7.70;99.90;;;;;;5073087;28;20312;-50
2022/02/10 22:25:18;;;;;;;2.05;1.85;;;7.70;99.90;;;;;;5072879;28;20232;-50
2022/02/10 22:27:49;;;;;;;2.03;1.60;;;7.70;99.90;;;;;;5069009;28;20267;-50
2022/02/10 22:30:27;;;;;;;2.43;1.70;;;7.70;99.90;;;;;;5062157;28;20450;-50
2022/02/10 22:33:06;;;;;;;1.77;1.65;;;7.70;99.90;;;;;;5054863;28;20930;-51
2022/02/10 22:35:34;;;;;;;1.83;1.73;;;7.70;99.90;;;;;;5065820;28;20763;-50
2022/02/10 22:38:04;;;;;;;2.00;1.88;;;7.70;99.90;;;;;;5072490;28;20269;-49
2022/02/10 22:40:41;;;;;;;1.63;1.52;;;7.70;99.90;;;;;;5059993;28;20698;-50
2022/02/10 22:43:09;;;;;;;2.35;2.03;;;7.70;99.90;;;;;;5043647;28;20310;-50
2022/02/10 22:45:37;;;;;;;2.13;1.70;;;7.70;99.90;;;;;;5064682;28;20283;-51
2022/02/10 22:48:06;;;;;;;1.50;1.40;;;7.70;99.90;;;;;;5069208;28;20491;-50
2022/02/10 22:50:34;;;;;;;1.98;1.80;;;7.70;99.90;;;;;;5051385;28;20268;-50
2022/02/10 22:53:03;;;;;;;1.70;1.60;;;7.70;99.90;;;;;;5072223;28;20217;-50
2022/02/10 22:55:32;;;;;;;1.70;1.60;;;7.70;99.90;;;;;;5058820;28;20302;-49
2022/02/10 22:58:00;;;;;;;1.50;1.40;;;7.70;99.90;;;;;;5045341;28;20247;-50
2022/02/10 23:00:46;;;;;;;2.10;1.88;;;7.70;99.90;;;;;;5060769;28;20226;-50
